Time;durP1;ratioP1;P1;durP2;ratioP2;P2;SDS_P1;SDS_P2;PMS_P1;PMS_P2;Temp;Humidity;BMP_temperature;BMP_pressure;BME280_temperature;BME280_humidity;BME280_pressure;Samples;Min_cycle;Max_cycle;Signal;HPM_P1;HPM_P2
2022/08/13 00:01:37;;;;;;;17.67;15.43;;;;;;;;;;1654651;85;20933;-70
2022/08/13 00:04:01;;;;;;;22.52;15.75;;;;;;;;;;1662645;85;21396;-69
2022/08/13 00:09:08;;;;;;;20.12;16.87;;;;;;;;;;1646099;85;20999;-70
2022/08/13 00:14:22;;;;;;;22.55;16.02;;;;;;;;;;1660183;85;20919;-70
2022/08/13 00:16:50;;;;;;;21.70;17.10;;;;;;;;;;1660368;86;20874;-71
2022/08/13 00:19:16;;;;;;;;;;;;;;;;;;1663241;86;20949;-71
2022/08/13 00:21:43;;;;;;;23.38;17.30;;;;;;;;;;1646944;85;20122;-71
2022/08/13 00:24:09;;;;;;;22.58;17.32;;;;;;;;;;1639477;85;21124;-70
2022/08/13 00:26:36;;;;;;;17.70;15.85;;;;;;;;;;1639358;85;20895;-70
2022/08/13 00:29:03;;;;;;;21.73;16.55;;;;;;;;;;1649613;85;20950;-69
2022/08/13 00:31:31;;;;;;;20.40;16.97;;;;;;;;;;1639704;85;21002;-70
2022/08/13 00:33:59;;;;;;;26.07;19.55;;;;;;;;;;1639565;84;21425;-71
2022/08/13 00:36:26;;;;;;;22.90;18.65;;;;;;;;;;1653471;85;21137;-71
2022/08/13 00:38:53;;;;;;;23.27;18.30;;;;;;;;;;1643895;85;21702;-72
2022/08/13 00:41:38;;;;;;;19.87;17.77;;;;;;;;;;1642462;85;21010;-71
2022/08/13 00:44:06;;;;;;;22.70;19.57;;;;;;;;;;1639304;85;20911;-71
2022/08/13 00:46:33;;;;;;;27.67;19.52;;;;;;;;;;1653136;85;26585;-70
2022/08/13 00:49:03;;;;;;;23.52;19.25;;;;;;;;;;1654901;85;21256;-71
2022/08/13 00:51:29;;;;;;;22.45;19.40;;;;;;;;;;1654306;84;20947;-71
2022/08/13 00:53:58;;;;;;;23.80;19.17;;;;;;;;;;1663884;85;20909;-70
2022/08/13 00:56:25;;;;;;;22.85;19.55;;;;;;;;;;1661224;85;20889;-70
2022/08/13 00:58:52;;;;;;;29.95;23.40;;;;;;;;;;1661802;86;21009;-71
2022/08/13 01:01:23;;;;;;;24.90;22.22;;;;;;;;;;1660733;86;21238;-70
2022/08/13 01:03:47;;;;;;;26.80;21.90;;;;;;;;;;1660460;85;20858;-71
2022/08/13 01:06:14;;;;;;;33.53;28.50;;;;;;;;;;1660472;85;21005;-71
2022/08/13 01:08:41;;;;;;;41.55;30.85;;;;;;;;;;1663629;85;20929;-71
2022/08/13 01:11:10;;;;;;;40.15;33.25;;;;;;;;;;1642796;85;21448;-71
2022/08/13 01:13:37;;;;;;;38.42;33.75;;;;;;;;;;1646772;85;21215;-71
2022/08/13 01:16:06;;;;;;;37.60;31.90;;;;;;;;;;1647501;85;20899;-71
2022/08/13 01:18:36;;;;;;;34.92;27.00;;;;;;;;;;1664508;84;21479;-70
2022/08/13 01:21:08;;;;;;;34.67;26.42;;;;;;;;;;1651432;85;20984;-70
2022/08/13 01:23:35;;;;;;;29.05;22.95;;;;;;;;;;1658142;86;20942;-70
2022/08/13 01:26:02;;;;;;;25.20;22.40;;;;;;;;;;1660360;86;21158;-70
2022/08/13 01:28:29;;;;;;;24.00;21.60;;;;;;;;;;1660424;85;21439;-69
2022/08/13 01:30:57;;;;;;;25.25;21.37;;;;;;;;;;1660635;85;20926;-70
2022/08/13 01:33:23;;;;;;;;;;;;;;;;;;1652216;85;20947;-70
2022/08/13 01:35:51;;;;;;;22.13;19.73;;;;;;;;;;1645900;86;20084;-69
2022/08/13 01:38:19;;;;;;;25.65;19.17;;;;;;;;;;1660878;86;21279;-69
2022/08/13 01:40:48;;;;;;;22.62;20.23;;;;;;;;;;1660710;85;20982;-70
2022/08/13 01:43:14;;;;;;;21.23;18.92;;;;;;;;;;1660711;86;20898;-71
2022/08/13 01:45:43;;;;;;;24.45;19.75;;;;;;;;;;1660480;85;21032;-70
2022/08/13 01:50:54;;;;;;;22.02;19.82;;;;;;;;;;1646859;85;21147;-70
2022/08/13 01:53:20;;;;;;;22.62;20.23;;;;;;;;;;1651243;84;20926;-70
2022/08/13 01:55:52;;;;;;;26.68;19.07;;;;;;;;;;1657815;84;21404;-71
2022/08/13 01:58:20;;;;;;;23.92;21.37;;;;;;;;;;1665721;84;20910;-70
2022/08/13 02:00:49;;;;;;;24.55;20.45;;;;;;;;;;1662798;85;20937;-70
2022/08/13 02:03:17;;;;;;;27.37;22.00;;;;;;;;;;1660521;86;21899;-71
2022/08/13 02:05:44;;;;;;;25.82;23.12;;;;;;;;;;1642114;85;21002;-70
2022/08/13 02:08:12;;;;;;;24.00;21.42;;;;;;;;;;1646445;85;20873;-71
2022/08/13 02:10:40;;;;;;;;;;;;;;;;;;1673053;84;20910;-70
2022/08/13 02:13:11;;;;;;;33.35;23.52;;;;;;;;;;1660740;86;20104;-70
2022/08/13 02:15:39;;;;;;;28.90;22.93;;;;;;;;;;1673511;85;21130;-71
2022/08/13 02:18:07;;;;;;;28.95;23.70;;;;;;;;;;1660675;85;20973;-70
2022/08/13 02:20:35;;;;;;;43.38;28.45;;;;;;;;;;1645676;85;20978;-71
2022/08/13 02:23:02;;;;;;;45.83;32.07;;;;;;;;;;1649764;85;21054;-70
2022/08/13 02:25:29;;;;;;;43.80;30.48;;;;;;;;;;1639531;85;20967;-71
2022/08/13 02:27:56;;;;;;;34.63;27.73;;;;;;;;;;1660688;85;21170;-71
2022/08/13 02:30:26;;;;;;;32.45;27.05;;;;;;;;;;1661993;86;21490;-72
2022/08/13 02:32:52;;;;;;;36.17;27.37;;;;;;;;;;1660688;86;20957;-71
2022/08/13 02:35:19;;;;;;;34.95;26.95;;;;;;;;;;1660677;86;20930;-70
2022/08/13 02:37:47;;;;;;;29.23;25.68;;;;;;;;;;1660585;85;20953;-70
2022/08/13 02:42:59;;;;;;;27.10;24.05;;;;;;;;;;1660419;86;20459;-71
2022/08/13 02:45:26;;;;;;;27.30;24.43;;;;;;;;;;1646758;85;20907;-71
2022/08/13 02:47:54;;;;;;;30.13;26.20;;;;;;;;;;1646660;85;20915;-70
2022/08/13 02:50:21;;;;;;;28.00;25.05;;;;;;;;;;1667803;84;21408;-71
2022/08/13 02:52:51;;;;;;;30.07;26.60;;;;;;;;;;1660797;86;21088;-70
2022/08/13 02:55:22;;;;;;;27.37;24.37;;;;;;;;;;1660605;86;21329;-72
2022/08/13 02:57:49;;;;;;;29.05;26.10;;;;;;;;;;1660827;85;20930;-70
2022/08/13 03:00:17;;;;;;;28.98;25.97;;;;;;;;;;1660689;85;20993;-71
2022/08/13 03:02:44;;;;;;;28.47;23.90;;;;;;;;;;1664731;86;21005;-71
2022/08/13 03:05:14;;;;;;;27.60;24.90;;;;;;;;;;1659563;85;21564;-72
2022/08/13 03:07:43;;;;;;;28.20;25.05;;;;;;;;;;1644739;85;21448;-72
2022/08/13 03:10:12;;;;;;;27.20;24.00;;;;;;;;;;1653924;85;21445;-72
2022/08/13 03:12:45;;;;;;;29.75;25.72;;;;;;;;;;1661589;84;20945;-73
2022/08/13 03:15:13;;;;;;;30.02;26.57;;;;;;;;;;1655709;85;20999;-74
2022/08/13 03:17:40;;;;;;;30.15;25.72;;;;;;;;;;1663505;85;21244;-74
2022/08/13 03:20:10;;;;;;;28.70;25.53;;;;;;;;;;1660695;86;20926;-70
2022/08/13 03:22:54;;;;;;;28.47;25.48;;;;;;;;;;1639905;85;20990;-72
2022/08/13 03:25:22;;;;;;;31.95;26.07;;;;;;;;;;1642538;85;20899;-73
2022/08/13 03:27:50;;;;;;;28.90;25.85;;;;;;;;;;1644898;85;21004;-74
2022/08/13 03:30:17;;;;;;;29.25;24.95;;;;;;;;;;1660502;85;21192;-73
2022/08/13 03:32:45;;;;;;;29.47;25.60;;;;;;;;;;1653225;85;20859;-73
2022/08/13 03:35:13;;;;;;;26.40;23.60;;;;;;;;;;1660739;86;21555;-73
2022/08/13 03:37:40;;;;;;;27.22;24.35;;;;;;;;;;1644805;85;21188;-72
2022/08/13 03:40:08;;;;;;;30.90;23.67;;;;;;;;;;1648144;85;20906;-75
2022/08/13 03:42:35;;;;;;;28.60;23.62;;;;;;;;;;1647269;85;21906;-70
2022/08/13 03:45:03;;;;;;;27.17;22.20;;;;;;;;;;1639334;85;20973;-71
2022/08/13 03:47:30;;;;;;;25.37;22.67;;;;;;;;;;1645263;84;20952;-72
2022/08/13 03:49:59;;;;;;;24.55;20.88;;;;;;;;;;1653077;85;21481;-75
2022/08/13 03:52:26;;;;;;;;;;;;;;;;;;1664794;84;20941;-70
2022/08/13 03:54:53;;;;;;;25.10;21.25;;;;;;;;;;1655511;86;21160;-71
2022/08/13 03:57:19;;;;;;;27.42;21.37;;;;;;;;;;1660526;86;21508;-71
2022/08/13 03:59:48;;;;;;;23.73;21.42;;;;;;;;;;1660633;85;20937;-72
2022/08/13 04:02:15;;;;;;;24.63;21.25;;;;;;;;;;1660456;86;20941;-74
2022/08/13 04:04:48;;;;;;;23.20;20.40;;;;;;;;;;1660646;86;20977;-71
2022/08/13 04:07:15;;;;;;;26.17;22.17;;;;;;;;;;1660534;85;21260;-74
2022/08/13 04:09:43;;;;;;;23.75;21.17;;;;;;;;;;1660627;85;21029;-72
2022/08/13 04:12:11;;;;;;;26.80;21.27;;;;;;;;;;1660487;85;20890;-71
2022/08/13 04:14:39;;;;;;;28.98;21.48;;;;;;;;;;1660523;85;20898;-71
2022/08/13 04:17:10;;;;;;;23.50;20.82;;;;;;;;;;1664477;85;21052;-69
2022/08/13 04:19:38;;;;;;;24.85;22.20;;;;;;;;;;1662588;85;21257;-71
2022/08/13 04:22:06;;;;;;;24.63;21.02;;;;;;;;;;1674839;84;20953;-71
2022/08/13 04:24:33;;;;;;;26.17;21.82;;;;;;;;;;1660553;86;21017;-69
2022/08/13 04:27:02;;;;;;;27.37;21.82;;;;;;;;;;1642483;84;20958;-69
2022/08/13 04:29:29;;;;;;;28.07;21.05;;;;;;;;;;1639374;85;20938;-71
2022/08/13 04:31:59;;;;;;;25.05;20.80;;;;;;;;;;1651468;85;21228;-70
2022/08/13 04:34:28;;;;;;;23.55;20.85;;;;;;;;;;1661685;85;21447;-70
2022/08/13 04:36:56;;;;;;;23.27;19.77;;;;;;;;;;1649074;85;21006;-72
2022/08/13 04:39:24;;;;;;;20.17;18.05;;;;;;;;;;1649017;84;21503;-69
2022/08/13 04:41:51;;;;;;;22.67;19.15;;;;;;;;;;1644150;85;20891;-72
2022/08/13 04:44:17;;;;;;;22.90;19.50;;;;;;;;;;1660465;85;21269;-71
2022/08/13 04:46:44;;;;;;;25.05;18.35;;;;;;;;;;1660397;85;20901;-70
2022/08/13 04:49:11;;;;;;;20.50;18.32;;;;;;;;;;1660521;85;20937;-68
2022/08/13 04:51:39;;;;;;;23.10;19.48;;;;;;;;;;1657156;85;21474;-70
2022/08/13 04:54:06;;;;;;;22.37;19.92;;;;;;;;;;1643961;85;20934;-69
2022/08/13 04:56:33;;;;;;;24.60;19.23;;;;;;;;;;1660841;85;21148;-72
2022/08/13 04:59:00;;;;;;;28.33;20.13;;;;;;;;;;1660717;86;20933;-71
2022/08/13 05:01:27;;;;;;;22.13;19.82;;;;;;;;;;1660585;86;20891;-73
2022/08/13 05:03:55;;;;;;;23.62;18.95;;;;;;;;;;1660473;85;20906;-71
2022/08/13 05:06:22;;;;;;;22.25;19.27;;;;;;;;;;1652592;85;20976;-71
2022/08/13 05:08:49;;;;;;;22.20;19.17;;;;;;;;;;1660499;85;21101;-75
2022/08/13 05:11:18;;;;;;;19.80;17.52;;;;;;;;;;1660849;85;20945;-73
2022/08/13 05:13:45;;;;;;;;;;;;;;;;;;1649291;85;21468;-69
2022/08/13 05:16:13;;;;;;;;;;;;;;;;;;1660686;86;20173;-73
2022/08/13 05:18:45;;;;;;;21.80;16.17;;;;;;;;;;1660697;86;20458;-70
2022/08/13 05:21:13;;;;;;;24.50;17.50;;;;;;;;;;1645846;85;21227;-72
2022/08/13 05:23:41;;;;;;;24.87;17.52;;;;;;;;;;1641216;85;20943;-72
2022/08/13 05:26:07;;;;;;;18.17;15.68;;;;;;;;;;1660485;85;20898;-70
2022/08/13 05:28:35;;;;;;;24.72;17.02;;;;;;;;;;1652681;85;20913;-72
2022/08/13 05:31:02;;;;;;;24.00;17.00;;;;;;;;;;1676320;84;20993;-69
2022/08/13 05:33:29;;;;;;;20.05;14.98;;;;;;;;;;1661136;84;21272;-69
2022/08/13 05:35:59;;;;;;;24.90;15.63;;;;;;;;;;1660412;86;20886;-71
2022/08/13 05:38:27;;;;;;;20.23;16.82;;;;;;;;;;1646800;85;20915;-71
2022/08/13 05:40:56;;;;;;;21.45;15.75;;;;;;;;;;1643405;85;21076;-68
2022/08/13 05:43:25;;;;;;;17.80;15.90;;;;;;;;;;1663715;84;21494;-70
2022/08/13 05:45:59;;;;;;;20.92;17.25;;;;;;;;;;1663806;85;21245;-72
2022/08/13 05:48:27;;;;;;;21.57;15.30;;;;;;;;;;1661839;85;21041;-72
2022/08/13 05:51:00;;;;;;;19.98;17.10;;;;;;;;;;1660578;86;21499;-70
2022/08/13 05:53:28;;;;;;;19.73;17.00;;;;;;;;;;1660330;86;20858;-71
2022/08/13 05:55:54;;;;;;;28.25;18.57;;;;;;;;;;1660446;85;20997;-71
2022/08/13 05:58:22;;;;;;;28.52;21.73;;;;;;;;;;1660355;86;21195;-69
2022/08/13 06:03:35;;;;;;;20.30;16.30;;;;;;;;;;1650014;85;20931;-70
2022/08/13 06:06:03;;;;;;;;;;;;;;;;;;1641696;85;21067;-71
2022/08/13 06:08:34;;;;;;;26.30;18.12;;;;;;;;;;1655804;85;20102;-72
2022/08/13 06:11:03;;;;;;;28.35;19.82;;;;;;;;;;1646897;85;21439;-70
2022/08/13 06:13:30;;;;;;;21.37;17.10;;;;;;;;;;1660956;84;21412;-71
2022/08/13 06:15:58;;;;;;;20.33;16.90;;;;;;;;;;1660798;86;20994;-73
2022/08/13 06:18:26;;;;;;;18.75;16.75;;;;;;;;;;1660579;86;20937;-70
2022/08/13 06:20:54;;;;;;;19.02;16.85;;;;;;;;;;1660651;86;20969;-69
2022/08/13 06:23:22;;;;;;;18.95;16.25;;;;;;;;;;1674088;85;21828;-70
2022/08/13 06:25:51;;;;;;;22.45;17.32;;;;;;;;;;1660529;86;21471;-70
2022/08/13 06:28:16;;;;;;;;;;;;;;;;;;1663059;85;20958;-70
2022/08/13 06:30:43;;;;;;;23.73;15.55;;;;;;;;;;1656372;85;20098;-71
2022/08/13 06:33:10;;;;;;;20.75;15.78;;;;;;;;;;1655163;84;21073;-72
2022/08/13 06:35:36;;;;;;;21.25;16.20;;;;;;;;;;1642563;85;21273;-70
2022/08/13 06:38:06;;;;;;;20.75;17.17;;;;;;;;;;1662399;85;20866;-71
2022/08/13 06:40:35;;;;;;;20.77;16.05;;;;;;;;;;1656526;85;20902;-73
2022/08/13 06:43:05;;;;;;;17.52;15.08;;;;;;;;;;1661236;86;20866;-71
2022/08/13 06:45:33;;;;;;;19.52;14.80;;;;;;;;;;1652328;85;20963;-73
2022/08/13 06:48:01;;;;;;;22.73;15.53;;;;;;;;;;1639192;85;21199;-71
2022/08/13 06:50:28;;;;;;;19.20;15.20;;;;;;;;;;1640701;85;21456;-71
2022/08/13 06:52:56;;;;;;;20.23;15.25;;;;;;;;;;1655549;85;21504;-70
2022/08/13 06:55:23;;;;;;;18.98;13.88;;;;;;;;;;1652996;85;20903;-71
2022/08/13 06:57:50;;;;;;;19.73;14.23;;;;;;;;;;1667026;85;20870;-71
2022/08/13 07:00:18;;;;;;;18.65;15.00;;;;;;;;;;1653010;85;21494;-69
2022/08/13 07:02:45;;;;;;;22.85;14.63;;;;;;;;;;1661897;85;20937;-71
2022/08/13 07:05:12;;;;;;;22.23;13.97;;;;;;;;;;1679116;84;20992;-69
2022/08/13 07:07:45;;;;;;;25.25;15.38;;;;;;;;;;1661110;86;20902;-70
2022/08/13 07:10:11;;;;;;;21.97;14.50;;;;;;;;;;1673240;85;20862;-71
2022/08/13 07:12:41;;;;;;;21.73;16.23;;;;;;;;;;1666226;84;21791;-72
2022/08/13 07:15:12;;;;;;;23.27;16.45;;;;;;;;;;1665256;84;21511;-71
2022/08/13 07:17:41;;;;;;;26.57;16.32;;;;;;;;;;1655091;84;20957;-70
2022/08/13 07:20:10;;;;;;;21.93;16.73;;;;;;;;;;1661822;84;20902;-70
2022/08/13 07:22:37;;;;;;;20.08;15.55;;;;;;;;;;1649409;85;20947;-71
2022/08/13 07:25:05;;;;;;;18.10;15.28;;;;;;;;;;1647985;85;21252;-71
2022/08/13 07:27:32;;;;;;;;;;;;;;;;;;1663409;86;20988;-70
2022/08/13 07:29:59;;;;;;;22.50;15.03;;;;;;;;;;1646895;85;20106;-72
2022/08/13 07:32:27;;;;;;;19.30;15.30;;;;;;;;;;1648915;85;20891;-71
2022/08/13 07:34:58;;;;;;;24.23;15.07;;;;;;;;;;1659120;85;21000;-71
2022/08/13 07:37:23;;;;;;;22.22;16.70;;;;;;;;;;1661403;85;21360;-73
2022/08/13 07:39:49;;;;;;;18.98;14.93;;;;;;;;;;1660545;86;20918;-73
2022/08/13 07:42:16;;;;;;;27.77;17.45;;;;;;;;;;1660531;86;20894;-73
2022/08/13 07:44:42;;;;;;;24.18;16.32;;;;;;;;;;1660792;85;21573;-72
2022/08/13 07:47:14;;;;;;;23.95;15.78;;;;;;;;;;1660575;86;20866;-72
2022/08/13 07:49:41;;;;;;;19.00;16.15;;;;;;;;;;1660515;86;21808;-72
2022/08/13 07:52:09;;;;;;;21.37;15.45;;;;;;;;;;1660860;85;20886;-70
2022/08/13 07:54:36;;;;;;;17.92;14.93;;;;;;;;;;1660712;86;20953;-71
2022/08/13 07:57:02;;;;;;;20.08;15.45;;;;;;;;;;1660682;85;21017;-71
2022/08/13 07:59:29;;;;;;;20.77;16.00;;;;;;;;;;1660574;86;21412;-71
2022/08/13 08:01:55;;;;;;;18.17;15.08;;;;;;;;;;1660670;85;21160;-71
2022/08/13 08:04:24;;;;;;;23.12;14.53;;;;;;;;;;1660544;86;20972;-70
2022/08/13 08:06:51;;;;;;;19.62;14.68;;;;;;;;;;1660978;86;20934;-70
2022/08/13 08:09:22;;;;;;;19.23;14.13;;;;;;;;;;1660385;86;20942;-70
2022/08/13 08:14:27;;;;;;;21.33;15.85;;;;;;;;;;1664010;84;21175;-75
2022/08/13 08:16:51;;;;;;;20.00;15.55;;;;;;;;;;1660405;85;20932;-70
2022/08/13 08:19:18;;;;;;;20.12;14.93;;;;;;;;;;1660534;85;20890;-70
2022/08/13 08:21:45;;;;;;;17.90;14.33;;;;;;;;;;1660351;86;20913;-73
2022/08/13 08:24:13;;;;;;;19.17;14.65;;;;;;;;;;1660442;86;20854;-72
2022/08/13 08:26:39;;;;;;;18.60;14.93;;;;;;;;;;1648033;85;21297;-70
2022/08/13 08:29:09;;;;;;;17.25;14.18;;;;;;;;;;1648307;85;21042;-70
2022/08/13 08:31:40;;;;;;;16.77;14.95;;;;;;;;;;1649857;85;20941;-69
2022/08/13 08:34:07;;;;;;;16.65;13.60;;;;;;;;;;1661274;86;21467;-73
2022/08/13 08:36:40;;;;;;;16.80;13.50;;;;;;;;;;1643202;85;21125;-76
2022/08/13 08:44:40;;;;;;;22.27;13.88;;;;;;;;;;1667689;85;20953;-68
2022/08/13 08:47:07;;;;;;;17.77;14.13;;;;;;;;;;1680287;83;21049;-71
2022/08/13 08:49:34;;;;;;;20.50;14.15;;;;;;;;;;1667213;85;20985;-72
2022/08/13 08:52:02;;;;;;;17.73;15.35;;;;;;;;;;1667999;84;21642;-67
2022/08/13 08:54:29;;;;;;;18.92;16.05;;;;;;;;;;1671545;84;21052;-69
2022/08/13 08:56:57;;;;;;;20.20;16.70;;;;;;;;;;1672729;85;21519;-71
2022/08/13 08:59:32;;;;;;;21.67;15.93;;;;;;;;;;1668114;83;20957;-71
2022/08/13 09:01:59;;;;;;;24.63;17.67;;;;;;;;;;1674220;84;21108;-70
2022/08/13 09:04:28;;;;;;;21.17;16.62;;;;;;;;;;1679634;85;21213;-70
2022/08/13 09:06:57;;;;;;;21.23;17.45;;;;;;;;;;1667608;85;20952;-69
2022/08/13 09:09:25;;;;;;;18.55;16.55;;;;;;;;;;1673490;83;21092;-68
2022/08/13 09:11:55;;;;;;;21.33;17.05;;;;;;;;;;1677341;84;20938;-71
2022/08/13 09:14:30;;;;;;;23.25;17.20;;;;;;;;;;1669022;84;21582;-71
2022/08/13 09:16:58;;;;;;;20.55;17.57;;;;;;;;;;1648552;85;21219;-68
2022/08/13 09:19:25;;;;;;;23.30;17.42;;;;;;;;;;1663715;86;20981;-70
2022/08/13 09:21:52;;;;;;;20.85;16.87;;;;;;;;;;1660442;85;20886;-71
2022/08/13 09:24:24;;;;;;;22.30;17.48;;;;;;;;;;1660446;85;20946;-71
2022/08/13 09:26:47;;;;;;;20.95;17.52;;;;;;;;;;1660442;85;20949;-72
2022/08/13 09:29:17;;;;;;;20.92;18.00;;;;;;;;;;1655134;85;21182;-71
2022/08/13 09:31:44;;;;;;;22.20;17.37;;;;;;;;;;1642177;85;21519;-73
2022/08/13 09:34:11;;;;;;;21.97;17.77;;;;;;;;;;1650507;84;21254;-71
2022/08/13 09:36:38;;;;;;;23.00;17.07;;;;;;;;;;1666247;85;20910;-72
2022/08/13 09:39:05;;;;;;;17.73;15.75;;;;;;;;;;1674069;85;20942;-71
2022/08/13 09:41:42;;;;;;;23.20;15.35;;;;;;;;;;1660589;85;21242;-71
2022/08/13 09:44:08;;;;;;;19.27;16.82;;;;;;;;;;1637661;86;20945;-72
2022/08/13 09:46:35;;;;;;;18.17;16.23;;;;;;;;;;1660876;86;20981;-71
2022/08/13 09:49:03;;;;;;;23.65;18.10;;;;;;;;;;1647177;85;21029;-70
2022/08/13 09:51:35;;;;;;;19.70;16.52;;;;;;;;;;1648825;85;20962;-71
2022/08/13 09:54:01;;;;;;;20.23;17.07;;;;;;;;;;1645010;85;21164;-71
2022/08/13 09:56:28;;;;;;;22.98;17.00;;;;;;;;;;1651583;85;20909;-69
2022/08/13 09:58:54;;;;;;;19.87;15.45;;;;;;;;;;1660988;84;20985;-72
2022/08/13 10:01:21;;;;;;;21.70;14.98;;;;;;;;;;1660719;86;20966;-70
2022/08/13 10:03:49;;;;;;;20.43;13.85;;;;;;;;;;1660740;85;20930;-71
2022/08/13 10:06:18;;;;;;;;;;;;;;;;;;1652234;85;21154;-71
2022/08/13 10:08:46;;;;;;;17.48;13.72;;;;;;;;;;1648773;85;20114;-69
2022/08/13 10:11:15;;;;;;;19.05;13.35;;;;;;;;;;1639480;85;21460;-70
2022/08/13 10:13:42;;;;;;;14.35;12.85;;;;;;;;;;1646422;85;21411;-70
2022/08/13 10:16:10;;;;;;;17.57;12.93;;;;;;;;;;1650841;85;20929;-71
2022/08/13 10:18:36;;;;;;;17.85;12.78;;;;;;;;;;1649607;85;21659;-72
2022/08/13 10:21:03;;;;;;;17.65;11.88;;;;;;;;;;1660394;84;20975;-70
2022/08/13 10:23:30;;;;;;;14.70;12.40;;;;;;;;;;1677841;84;20889;-68
2022/08/13 10:25:57;;;;;;;12.95;11.48;;;;;;;;;;1662286;86;21052;-69
2022/08/13 10:28:29;;;;;;;16.10;12.15;;;;;;;;;;1660493;85;20981;-69
2022/08/13 10:30:55;;;;;;;14.50;11.25;;;;;;;;;;1663786;86;21797;-69
2022/08/13 10:33:23;;;;;;;22.17;12.03;;;;;;;;;;1646393;85;20907;-70
2022/08/13 10:35:52;;;;;;;15.33;12.00;;;;;;;;;;1662604;84;20941;-69
2022/08/13 10:38:26;;;;;;;13.62;11.28;;;;;;;;;;1660706;85;21644;-69
2022/08/13 10:40:48;;;;;;;14.73;11.45;;;;;;;;;;1660733;85;20851;-69
2022/08/13 10:43:14;;;;;;;16.15;11.97;;;;;;;;;;1660611;85;21850;-71
2022/08/13 10:45:42;;;;;;;19.55;12.10;;;;;;;;;;1656219;85;20917;-72
2022/08/13 10:48:11;;;;;;;14.35;11.25;;;;;;;;;;1662312;86;20937;-71
2022/08/13 10:50:38;;;;;;;16.87;11.75;;;;;;;;;;1660567;85;21020;-69
2022/08/13 10:53:05;;;;;;;17.75;12.40;;;;;;;;;;1660545;86;21001;-70
2022/08/13 10:55:35;;;;;;;15.72;11.73;;;;;;;;;;1650556;84;21174;-71
2022/08/13 10:58:13;;;;;;;16.35;11.15;;;;;;;;;;1660898;86;21416;-70
2022/08/13 11:00:31;;;;;;;25.68;12.33;;;;;;;;;;1660737;85;20989;-70
2022/08/13 11:02:58;;;;;;;13.15;11.75;;;;;;;;;;1660548;86;20950;-70
2022/08/13 11:05:25;;;;;;;16.05;11.63;;;;;;;;;;1660566;85;20985;-70
2022/08/13 11:07:53;;;;;;;18.62;10.82;;;;;;;;;;1660743;86;21235;-70
2022/08/13 11:10:21;;;;;;;16.27;11.05;;;;;;;;;;1660751;85;21467;-71
2022/08/13 11:12:52;;;;;;;15.98;11.43;;;;;;;;;;1660634;86;20902;-73
2022/08/13 11:15:20;;;;;;;15.88;10.48;;;;;;;;;;1660773;85;20985;-71
2022/08/13 11:17:48;;;;;;;14.13;10.38;;;;;;;;;;1662303;85;20972;-71
2022/08/13 11:20:17;;;;;;;;;;;;;;;;;;1656259;85;21452;-69
2022/08/13 11:22:43;;;;;;;16.97;11.15;;;;;;;;;;1654410;85;20414;-71
2022/08/13 11:25:11;;;;;;;13.78;10.65;;;;;;;;;;1661253;85;21448;-70
2022/08/13 11:27:37;;;;;;;17.15;11.20;;;;;;;;;;1660522;86;20945;-72
2022/08/13 11:30:05;;;;;;;17.05;10.43;;;;;;;;;;1660567;86;21001;-72
2022/08/13 11:32:32;;;;;;;16.75;11.43;;;;;;;;;;1659052;85;21821;-70
2022/08/13 11:34:59;;;;;;;13.83;11.33;;;;;;;;;;1663528;86;21079;-71
2022/08/13 11:37:25;;;;;;;14.07;11.63;;;;;;;;;;1660625;86;21491;-69
2022/08/13 11:39:52;;;;;;;13.88;10.70;;;;;;;;;;1660500;86;20886;-71
2022/08/13 11:42:19;;;;;;;13.53;11.30;;;;;;;;;;1660643;86;20882;-73
2022/08/13 11:44:45;;;;;;;15.90;10.68;;;;;;;;;;1660406;85;21123;-70
2022/08/13 11:47:12;;;;;;;14.13;10.32;;;;;;;;;;1657081;85;21438;-74
2022/08/13 11:49:38;;;;;;;19.45;10.75;;;;;;;;;;1653558;85;21001;-71
2022/08/13 11:52:05;;;;;;;12.82;10.25;;;;;;;;;;1660907;84;20894;-70
2022/08/13 11:54:32;;;;;;;16.62;10.80;;;;;;;;;;1652633;85;21098;-71
2022/08/13 11:57:00;;;;;;;21.97;10.43;;;;;;;;;;1661349;86;21151;-72
2022/08/13 11:59:27;;;;;;;12.73;10.32;;;;;;;;;;1660322;86;20902;-72
2022/08/13 12:01:54;;;;;;;17.92;11.33;;;;;;;;;;1660568;86;20925;-71
2022/08/13 12:04:21;;;;;;;13.90;10.60;;;;;;;;;;1653258;85;20947;-71
2022/08/13 12:06:48;;;;;;;14.18;10.70;;;;;;;;;;1639593;84;20891;-72
2022/08/13 12:09:17;;;;;;;14.98;10.75;;;;;;;;;;1648031;84;21108;-70
2022/08/13 12:11:44;;;;;;;12.07;10.63;;;;;;;;;;1650168;85;20986;-72
2022/08/13 12:14:11;;;;;;;13.35;10.25;;;;;;;;;;1658190;85;20938;-76
2022/08/13 12:16:37;;;;;;;16.82;11.18;;;;;;;;;;1654580;85;21008;-72
2022/08/13 12:19:04;;;;;;;15.60;11.50;;;;;;;;;;1665950;84;20940;-72
2022/08/13 12:21:32;;;;;;;14.58;11.20;;;;;;;;;;1660668;86;21258;-73
2022/08/13 12:23:59;;;;;;;17.80;11.15;;;;;;;;;;1660732;86;21476;-71
2022/08/13 12:26:26;;;;;;;14.98;10.78;;;;;;;;;;1660452;86;20934;-73
2022/08/13 12:28:52;;;;;;;14.45;11.33;;;;;;;;;;1660333;86;20946;-69
2022/08/13 12:31:20;;;;;;;16.17;11.03;;;;;;;;;;1660426;86;20882;-71
2022/08/13 12:33:47;;;;;;;15.95;11.80;;;;;;;;;;1660457;86;21242;-71
2022/08/13 12:36:13;;;;;;;19.75;11.88;;;;;;;;;;1660764;86;21495;-69
2022/08/13 12:38:40;;;;;;;17.77;12.15;;;;;;;;;;1645362;85;20879;-70
2022/08/13 12:41:06;;;;;;;17.42;11.48;;;;;;;;;;1662493;84;20937;-70
2022/08/13 12:43:32;;;;;;;14.55;11.35;;;;;;;;;;1655037;85;20959;-71
2022/08/13 12:45:59;;;;;;;14.53;11.55;;;;;;;;;;1661713;84;21156;-71
2022/08/13 12:48:28;;;;;;;15.50;12.30;;;;;;;;;;1660410;85;20989;-71
2022/08/13 12:50:54;;;;;;;20.23;12.60;;;;;;;;;;1660712;86;20981;-70
2022/08/13 12:53:21;;;;;;;17.05;12.00;;;;;;;;;;1660541;86;20938;-72
2022/08/13 12:55:47;;;;;;;16.80;12.28;;;;;;;;;;1660450;86;20885;-70
2022/08/13 12:58:18;;;;;;;18.50;11.35;;;;;;;;;;1660498;85;21807;-70
2022/08/13 13:00:46;;;;;;;17.40;11.43;;;;;;;;;;1643194;84;20931;-69
2022/08/13 13:03:13;;;;;;;14.83;12.50;;;;;;;;;;1658507;85;21453;-71
2022/08/13 13:05:42;;;;;;;19.12;12.07;;;;;;;;;;1665572;86;20941;-70
2022/08/13 13:08:16;;;;;;;12.78;11.38;;;;;;;;;;1662591;84;20905;-71
2022/08/13 13:10:44;;;;;;;19.80;12.65;;;;;;;;;;1652682;85;21223;-71
2022/08/13 13:13:12;;;;;;;15.03;11.83;;;;;;;;;;1660843;86;20937;-71
2022/08/13 13:15:40;;;;;;;15.40;11.60;;;;;;;;;;1660819;85;20954;-72
2022/08/13 13:18:14;;;;;;;;;;;;;;;;;;1662977;85;20977;-69
2022/08/13 13:20:43;;;;;;;16.52;12.60;;;;;;;;;;1650548;85;20158;-72
2022/08/13 13:23:12;;;;;;;14.53;12.03;;;;;;;;;;1648482;85;21148;-72
2022/08/13 13:25:45;;;;;;;16.70;13.18;;;;;;;;;;1660684;86;20934;-72
2022/08/13 13:28:15;;;;;;;14.90;12.45;;;;;;;;;;1660577;85;20866;-71
2022/08/13 13:30:43;;;;;;;14.70;12.07;;;;;;;;;;1660722;86;20968;-71
2022/08/13 13:33:09;;;;;;;14.28;12.78;;;;;;;;;;1648113;85;20891;-71
2022/08/13 13:35:37;;;;;;;19.12;13.78;;;;;;;;;;1639493;84;21102;-71
2022/08/13 13:38:05;;;;;;;17.15;13.28;;;;;;;;;;1656550;84;21006;-72
2022/08/13 13:40:34;;;;;;;18.27;13.48;;;;;;;;;;1667513;85;20954;-70
2022/08/13 13:43:01;;;;;;;14.15;11.68;;;;;;;;;;1660450;86;20890;-70
2022/08/13 13:45:29;;;;;;;13.68;11.78;;;;;;;;;;1657379;85;21393;-71
2022/08/13 13:47:56;;;;;;;18.70;12.75;;;;;;;;;;1660974;86;21262;-72
2022/08/13 13:50:24;;;;;;;19.82;12.68;;;;;;;;;;1658592;85;20897;-71
2022/08/13 13:52:54;;;;;;;14.83;12.85;;;;;;;;;;1648365;85;21495;-71
2022/08/13 13:55:20;;;;;;;15.93;12.55;;;;;;;;;;1650870;85;21477;-71
2022/08/13 13:57:47;;;;;;;15.93;12.33;;;;;;;;;;1665152;85;20965;-73
2022/08/13 14:00:14;;;;;;;17.55;13.48;;;;;;;;;;1660677;86;21310;-75
2022/08/13 14:02:44;;;;;;;17.35;12.88;;;;;;;;;;1660676;86;20933;-72
2022/08/13 14:05:11;;;;;;;18.67;12.47;;;;;;;;;;1666281;84;20954;-70
2022/08/13 14:07:40;;;;;;;13.50;12.03;;;;;;;;;;1656585;84;21583;-73
2022/08/13 14:10:07;;;;;;;13.50;12.07;;;;;;;;;;1651298;85;21599;-70
2022/08/13 14:12:34;;;;;;;20.45;12.18;;;;;;;;;;1640296;85;21174;-69
2022/08/13 14:15:01;;;;;;;16.93;13.80;;;;;;;;;;1658429;84;20882;-70
2022/08/13 14:17:30;;;;;;;17.30;12.15;;;;;;;;;;1646447;85;20861;-70
2022/08/13 14:19:57;;;;;;;13.62;11.68;;;;;;;;;;1662222;84;20989;-72
2022/08/13 14:22:23;;;;;;;16.32;11.97;;;;;;;;;;1660492;86;20973;-73
2022/08/13 14:24:50;;;;;;;16.05;12.23;;;;;;;;;;1660688;85;21945;-73
2022/08/13 14:27:17;;;;;;;18.15;12.00;;;;;;;;;;1660489;85;21531;-73
2022/08/13 14:29:43;;;;;;;14.17;11.53;;;;;;;;;;1660962;86;21032;-71
2022/08/13 14:32:10;;;;;;;14.60;12.00;;;;;;;;;;1660537;85;20966;-74
2022/08/13 14:34:37;;;;;;;18.87;11.40;;;;;;;;;;1656781;85;21014;-71
2022/08/13 14:37:04;;;;;;;13.03;11.25;;;;;;;;;;1639815;84;21155;-73
2022/08/13 14:39:31;;;;;;;13.53;11.23;;;;;;;;;;1639656;85;20935;-71
2022/08/13 14:41:58;;;;;;;27.42;12.98;;;;;;;;;;1660466;85;21000;-71
2022/08/13 14:44:25;;;;;;;17.57;11.97;;;;;;;;;;1661648;84;20957;-73
2022/08/13 14:46:51;;;;;;;15.15;11.78;;;;;;;;;;1648288;85;20959;-72